Terminal Aerodrome Forecast
Issued by NWS

Home | Current Version | Previous Version | Text Only | Print | Product List | Glossary On
Versions: 1 2 3 4 5 6 7 8 9 10 11 12 13 14 15 16 17 18 19 20 21 22 23 24 25 26 27 28 29 30 31 32 33 34 35 36 37
000
FTUS45 KGJT 242339
TAFEGE
TAF
KEGE 242339Z 2500/2524 VRB03KT P6SM BKN200
     FM250300 09003KT P6SM SCT100 BKN200
     FM250900 VRB03KT P6SM BKN080
     FM251200 00000KT P6SM OVC080
     FM251500 00000KT P6SM OVC050
     FM251900 VRB03KT P6SM VCSH SCT035 OVC050
      AMD LTD TO CLD VIS AND WIND 2506/2514=

USA.gov is the U.S. government's official web portal to all federal, state and local government web resources and services.